createdAt,value
2022-10-10T00:01:34.325Z,92.79
2022-10-10T00:03:37.550Z,92.81
2022-10-10T00:05:41.074Z,93.55
2022-10-10T00:07:44.391Z,93.09
2022-10-10T00:09:47.468Z,93.50
2022-10-10T00:11:50.434Z,93.66
2022-10-10T00:13:53.774Z,93.46
2022-10-10T00:15:56.869Z,92.74
2022-10-10T00:18:01.282Z,92.91
2022-10-10T00:20:04.952Z,94.35
2022-10-10T00:22:07.865Z,92.85
2022-10-10T00:24:10.903Z,92.95
2022-10-10T00:26:18.955Z,92.81
2022-10-10T00:28:22.389Z,93.79
2022-10-10T00:30:25.521Z,93.15
2022-10-10T00:32:28.660Z,94.66
2022-10-10T00:34:33.021Z,93.96
2022-10-10T00:36:35.991Z,94.25
2022-10-10T00:38:39.034Z,92.78
2022-10-10T00:40:46.151Z,92.94
2022-10-10T00:42:49.463Z,94.91
2022-10-10T00:45:31.260Z,94.07
2022-10-10T00:47:34.774Z,93.03
2022-10-10T00:49:43.137Z,94.71
2022-10-10T00:51:47.212Z,93.88
2022-10-10T00:53:52.252Z,92.77
2022-10-10T00:55:55.437Z,93.04
2022-10-10T00:57:58.596Z,93.20
2022-10-10T01:00:02.218Z,94.14
2022-10-10T01:02:05.839Z,95.08
2022-10-10T01:04:30.888Z,93.71
2022-10-10T01:06:35.607Z,94.57
2022-10-10T01:08:38.738Z,94.55
2022-10-10T01:10:50.791Z,93.37
2022-10-10T01:13:12.518Z,93.20
2022-10-10T01:15:20.599Z,95.55
2022-10-10T01:17:27.511Z,93.45
2022-10-10T01:20:10.222Z,93.26
2022-10-10T01:22:22.222Z,94.09
2022-10-10T01:24:38.208Z,94.90
2022-10-10T01:27:20.101Z,95.66
2022-10-10T01:29:28.439Z,94.41
2022-10-10T01:31:32.659Z,95.24
2022-10-10T01:33:44.504Z,94.14
2022-10-10T01:35:51.965Z,94.90
2022-10-10T01:38:00.374Z,94.80
2022-10-10T01:40:10.786Z,95.22
2022-10-10T01:42:17.716Z,94.77
2022-10-10T01:44:23.778Z,95.64
2022-10-10T01:46:27.427Z,94.52
2022-10-10T01:48:31.896Z,94.40
2022-10-10T01:50:44.090Z,94.01
2022-10-10T01:52:53.883Z,93.51
2022-10-10T01:55:11.540Z,94.58
2022-10-10T01:57:21.271Z,93.24
2022-10-10T01:59:35.164Z,95.66
2022-10-10T02:01:43.356Z,95.04
2022-10-10T02:03:48.688Z,93.72
2022-10-10T02:05:54.830Z,94.22
2022-10-10T02:07:59.552Z,95.20
2022-10-10T02:10:05.047Z,96.21
2022-10-10T02:12:09.587Z,94.27
2022-10-10T02:14:16.316Z,94.60
2022-10-10T02:16:24.570Z,95.86
2022-10-10T02:18:30.801Z,94.66
2022-10-10T02:20:34.212Z,94.84
2022-10-10T02:22:38.225Z,95.19
2022-10-10T02:24:41.270Z,95.51
2022-10-10T02:26:46.965Z,94.84
2022-10-10T02:28:54.043Z,95.45
2022-10-10T02:31:00.737Z,95.09
2022-10-10T02:33:06.790Z,94.62
2022-10-10T02:35:11.886Z,94.32
2022-10-10T02:37:16.801Z,95.46
2022-10-10T02:39:23.095Z,95.19
2022-10-10T02:41:26.520Z,95.13
2022-10-10T02:43:29.496Z,96.51
2022-10-10T02:45:33.175Z,95.37
2022-10-10T02:47:36.086Z,95.11
2022-10-10T02:49:42.040Z,95.92
2022-10-10T02:51:45.037Z,96.69
2022-10-10T02:53:47.974Z,95.39
2022-10-10T02:55:50.977Z,95.98
2022-10-10T02:57:54.073Z,95.17
2022-10-10T02:59:57.190Z,95.22
2022-10-10T03:02:00.149Z,95.74
2022-10-10T03:04:03.251Z,94.43
2022-10-10T03:06:08.338Z,94.30
2022-10-10T03:08:11.977Z,94.02
2022-10-10T03:10:15.014Z,94.90
2022-10-10T03:12:18.242Z,94.93
2022-10-10T03:14:21.173Z,94.14
2022-10-10T03:16:24.146Z,94.74
2022-10-10T03:18:27.129Z,96.34
2022-10-10T03:20:30.083Z,94.91
2022-10-10T03:22:34.438Z,94.87
2022-10-10T03:24:37.407Z,94.57
2022-10-10T03:26:40.327Z,94.33
2022-10-10T03:28:43.395Z,95.33
2022-10-10T03:30:47.094Z,95.37
2022-10-10T03:32:50.281Z,94.27
2022-10-10T03:34:53.413Z,96.29
2022-10-10T03:36:56.374Z,96.09
2022-10-10T03:39:00.749Z,95.08
2022-10-10T03:41:03.786Z,95.42
2022-10-10T03:43:09.063Z,96.18
2022-10-10T03:45:12.056Z,95.89
2022-10-10T03:47:14.998Z,95.03
2022-10-10T03:49:17.955Z,94.87
2022-10-10T03:51:21.156Z,94.60
2022-10-10T03:53:24.289Z,95.26
2022-10-10T03:55:28.800Z,95.77
2022-10-10T03:57:31.758Z,95.12
2022-10-10T03:59:34.761Z,96.90
2022-10-10T04:01:37.835Z,94.86
2022-10-10T04:03:41.392Z,94.54
2022-10-10T04:05:44.358Z,96.82
2022-10-10T04:07:47.290Z,96.43
2022-10-10T04:09:50.308Z,95.16
2022-10-10T04:11:54.624Z,95.61
2022-10-10T04:13:57.603Z,95.24
2022-10-10T04:16:00.965Z,96.68
2022-10-10T04:18:04.018Z,96.76
2022-10-10T04:20:07.464Z,94.63
2022-10-10T04:22:11.365Z,94.59
2022-10-10T04:24:14.361Z,95.96
2022-10-10T04:26:17.885Z,95.56
2022-10-10T04:28:22.327Z,95.90
2022-10-10T04:30:25.934Z,96.09
2022-10-10T04:32:29.003Z,96.42
2022-10-10T04:34:31.956Z,96.70
2022-10-10T04:36:34.926Z,96.36
2022-10-10T04:38:38.232Z,95.99
2022-10-10T04:40:41.104Z,95.51
2022-10-10T04:42:44.089Z,94.40
2022-10-10T04:44:48.599Z,95.60
2022-10-10T04:46:51.699Z,95.04
2022-10-10T04:48:54.664Z,96.32
2022-10-10T04:51:00.017Z,94.71
2022-10-10T04:53:02.983Z,95.70
2022-10-10T04:55:06.789Z,94.78
2022-10-10T04:57:09.777Z,94.65
2022-10-10T04:59:12.780Z,95.68
2022-10-10T05:01:17.115Z,95.20
2022-10-10T05:03:20.238Z,95.71
2022-10-10T05:05:23.235Z,95.45
2022-10-10T05:07:26.286Z,96.97
2022-10-10T05:09:29.207Z,95.89
2022-10-10T05:11:32.298Z,96.20
2022-10-10T05:13:35.377Z,95.58
2022-10-10T05:15:39.143Z,96.75
2022-10-10T05:17:43.409Z,94.86
2022-10-10T05:19:46.387Z,95.69
2022-10-10T05:21:49.330Z,96.99
2022-10-10T05:23:52.297Z,95.87
2022-10-10T05:25:55.324Z,96.69
2022-10-10T05:27:58.287Z,97.47
2022-10-10T05:30:01.161Z,97.24
2022-10-10T05:32:09.165Z,96.87
2022-10-10T05:34:15.497Z,95.69
2022-10-10T05:36:18.517Z,95.00
2022-10-10T05:38:21.416Z,95.42
2022-10-10T05:40:24.376Z,96.66
2022-10-10T05:42:27.316Z,97.19
2022-10-10T05:44:31.668Z,97.30
2022-10-10T05:46:34.669Z,96.34
2022-10-10T05:48:37.607Z,96.25
2022-10-10T05:50:48.429Z,95.99
2022-10-10T05:52:51.719Z,97.07
2022-10-10T05:54:54.928Z,97.58
2022-10-10T05:56:57.922Z,97.05
2022-10-10T05:59:00.899Z,97.24
2022-10-10T06:01:06.991Z,95.68
2022-10-10T06:03:13.775Z,96.24
2022-10-10T06:05:16.860Z,95.75
2022-10-10T06:07:21.216Z,95.39
2022-10-10T06:09:24.216Z,97.11
2022-10-10T06:11:27.369Z,96.58
2022-10-10T06:13:30.352Z,96.26
2022-10-10T06:15:33.298Z,95.62
2022-10-10T06:17:36.287Z,96.18
2022-10-10T06:19:39.231Z,96.27
2022-10-10T06:21:42.199Z,96.45
2022-10-10T06:23:46.789Z,97.47
2022-10-10T06:25:52.851Z,96.28
2022-10-10T06:27:55.834Z,97.42
2022-10-10T06:29:58.752Z,97.79
2022-10-10T06:32:01.884Z,96.55
2022-10-10T06:34:04.995Z,96.59
2022-10-10T06:36:09.135Z,96.38
2022-10-10T06:38:12.778Z,98.01
2022-10-10T06:40:17.325Z,96.04
2022-10-10T06:42:20.449Z,96.50
2022-10-10T06:44:30.764Z,97.97
2022-10-10T06:46:37.126Z,95.95
2022-10-10T06:48:40.152Z,96.17
2022-10-10T06:50:43.423Z,95.55
2022-10-10T06:52:46.698Z,95.07
2022-10-10T06:54:49.716Z,95.33
2022-10-10T06:56:54.212Z,95.82
2022-10-10T06:58:57.240Z,94.04
2022-10-10T07:01:01.844Z,94.89
2022-10-10T07:03:05.026Z,95.65
2022-10-10T07:05:08.962Z,94.77
2022-10-10T07:07:11.906Z,94.79
2022-10-10T07:09:15.004Z,95.75
2022-10-10T07:11:18.112Z,95.88
2022-10-10T07:13:22.946Z,95.97
2022-10-10T07:15:26.025Z,96.21
2022-10-10T07:17:29.157Z,96.09
2022-10-10T07:19:32.152Z,97.11
2022-10-10T07:21:35.229Z,96.31
2022-10-10T07:23:39.412Z,95.60
2022-10-10T07:25:44.675Z,94.15
2022-10-10T07:27:47.727Z,93.26
2022-10-10T07:29:52.089Z,93.11
2022-10-10T07:31:55.149Z,91.45
2022-10-10T07:33:58.283Z,90.89
2022-10-10T07:36:01.688Z,90.00
2022-10-10T07:38:04.838Z,89.56
2022-10-10T07:40:09.637Z,88.56
2022-10-10T07:42:12.714Z,88.44
2022-10-10T07:44:15.775Z,87.00
2022-10-10T07:46:21.384Z,86.26
2022-10-10T07:48:25.600Z,88.57
2022-10-10T07:50:28.760Z,87.11
2022-10-10T07:52:31.799Z,86.86
2022-10-10T07:54:34.925Z,86.52
2022-10-10T07:56:40.574Z,88.90
2022-10-10T07:58:43.608Z,89.78
2022-10-10T08:00:46.638Z,88.40
2022-10-10T08:02:52.186Z,89.16
2022-10-10T08:04:55.224Z,87.66
2022-10-10T08:06:58.253Z,87.32
2022-10-10T08:09:01.216Z,87.11
2022-10-10T08:11:05.660Z,86.87
2022-10-10T08:13:08.612Z,87.33
2022-10-10T08:17:14.895Z,88.25
2022-10-10T08:19:19.266Z,89.52
2022-10-10T08:21:22.401Z,88.72
2022-10-10T08:23:25.365Z,89.18
2022-10-10T08:25:28.366Z,88.76
2022-10-10T08:27:31.563Z,89.46
2022-10-10T08:29:34.812Z,88.85
2022-10-10T08:31:38.098Z,89.16
2022-10-10T08:33:42.738Z,89.42
2022-10-10T08:35:47.156Z,87.52
2022-10-10T08:37:50.829Z,88.29
2022-10-10T08:39:53.819Z,88.41
2022-10-10T08:41:58.873Z,88.01
2022-10-10T08:44:03.450Z,87.87
2022-10-10T08:46:11.388Z,88.01
2022-10-10T08:48:16.507Z,87.75
2022-10-10T08:50:23.318Z,87.17
2022-10-10T08:52:31.353Z,88.70
2022-10-10T08:54:36.021Z,87.58
2022-10-10T08:56:39.572Z,89.08
2022-10-10T08:58:46.313Z,88.35
2022-10-10T09:00:51.811Z,87.58
2022-10-10T09:02:57.324Z,90.37
2022-10-10T09:05:00.613Z,88.78
2022-10-10T09:07:15.044Z,88.86
2022-10-10T09:09:27.384Z,86.60
2022-10-10T09:11:43.459Z,87.19
2022-10-10T09:13:50.654Z,84.88
2022-10-10T09:15:56.747Z,84.74
2022-10-10T09:18:05.796Z,84.28
2022-10-10T09:20:19.744Z,84.15
2022-10-10T09:22:24.736Z,84.38
2022-10-10T09:24:33.281Z,85.41
2022-10-10T09:26:39.654Z,85.55
2022-10-10T09:28:46.744Z,86.62
2022-10-10T09:30:52.239Z,84.66
2022-10-10T09:33:00.002Z,83.75
2022-10-10T09:35:08.995Z,84.11
2022-10-10T09:37:24.404Z,82.53
2022-10-10T09:39:44.012Z,84.00
2022-10-10T09:41:49.026Z,85.23
2022-10-10T09:43:56.609Z,84.22
2022-10-10T09:45:59.703Z,84.36
2022-10-10T09:48:02.725Z,83.41
2022-10-10T09:50:06.319Z,83.91
2022-10-10T09:52:23.619Z,83.85
2022-10-10T09:54:26.549Z,84.28
2022-10-10T09:56:32.574Z,83.50
2022-10-10T09:58:38.134Z,82.97
2022-10-10T10:00:41.226Z,82.35
2022-10-10T10:02:44.301Z,83.21
2022-10-10T10:04:47.757Z,83.50
2022-10-10T10:06:52.374Z,83.41
2022-10-10T10:08:55.416Z,82.18
2022-10-10T10:10:59.421Z,80.82
2022-10-10T10:13:04.107Z,81.17
2022-10-10T10:15:17.287Z,81.48
2022-10-10T10:17:23.805Z,80.04
2022-10-10T10:19:31.625Z,80.17
2022-10-10T10:21:49.660Z,79.52
2022-10-10T10:23:55.321Z,80.08
2022-10-10T10:26:00.197Z,81.46
2022-10-10T10:28:21.583Z,80.89
2022-10-10T10:30:26.149Z,81.61
2022-10-10T10:32:41.519Z,79.81
2022-10-10T10:35:02.064Z,79.53
2022-10-10T10:37:14.925Z,79.64
2022-10-10T10:39:30.356Z,80.40
2022-10-10T10:41:38.538Z,80.38
2022-10-10T10:44:01.548Z,80.46
2022-10-10T10:46:11.005Z,81.36
2022-10-10T10:48:22.633Z,81.59
2022-10-10T10:50:42.071Z,81.20
2022-10-10T10:52:57.966Z,82.55
2022-10-10T10:55:13.016Z,81.01
2022-10-10T10:57:45.816Z,79.78
2022-10-10T11:00:21.097Z,80.72
2022-10-10T11:02:54.797Z,78.97
2022-10-10T11:05:21.230Z,79.61
2022-10-10T11:07:30.560Z,78.54
2022-10-10T11:09:49.793Z,79.43
2022-10-10T11:12:04.722Z,79.55
2022-10-10T11:14:19.257Z,79.40
2022-10-10T11:19:00.412Z,79.08
2022-10-10T11:21:06.155Z,79.34
2022-10-10T11:23:12.222Z,79.18
2022-10-10T11:25:20.252Z,78.17
2022-10-10T11:27:27.456Z,79.17
2022-10-10T11:29:34.373Z,78.82
2022-10-10T11:31:41.377Z,77.57
2022-10-10T11:33:47.261Z,78.29
2022-10-10T11:35:54.647Z,77.13
2022-10-10T11:38:01.302Z,78.45
2022-10-10T11:40:06.253Z,78.30
2022-10-10T11:42:15.132Z,77.79
2022-10-10T11:44:20.781Z,77.84
2022-10-10T11:46:28.895Z,79.70
2022-10-10T11:48:40.516Z,78.30
2022-10-10T11:50:44.200Z,78.86
2022-10-10T11:52:54.113Z,77.03
2022-10-10T11:55:00.674Z,77.18
2022-10-10T11:57:12.725Z,78.15
2022-10-10T11:59:19.033Z,77.62
2022-10-10T12:01:27.828Z,77.37
2022-10-10T12:03:30.917Z,78.22
2022-10-10T12:05:38.731Z,78.43
2022-10-10T12:07:45.294Z,77.14
2022-10-10T12:09:52.226Z,77.26
2022-10-10T12:11:58.051Z,78.79
2022-10-10T12:14:02.436Z,79.04
2022-10-10T12:16:08.555Z,77.97
2022-10-10T12:18:24.531Z,76.98
2022-10-10T12:20:33.756Z,77.53
2022-10-10T12:22:38.513Z,76.73
2022-10-10T12:25:07.056Z,76.56
2022-10-10T12:27:26.856Z,76.57
2022-10-10T12:29:42.810Z,77.11
2022-10-10T12:31:45.812Z,76.11
2022-10-10T12:34:07.760Z,77.03
2022-10-10T12:37:07.529Z,76.57
2022-10-10T12:39:37.912Z,74.41
2022-10-10T12:41:55.790Z,74.85
2022-10-10T12:44:21.065Z,75.39
2022-10-10T12:46:34.521Z,76.19
2022-10-10T12:48:37.912Z,74.93
2022-10-10T12:50:42.042Z,73.98
2022-10-10T12:52:48.916Z,75.84
2022-10-10T12:54:54.000Z,73.99
2022-10-10T12:57:06.885Z,73.42
2022-10-10T12:59:23.547Z,72.62
2022-10-10T13:01:29.188Z,73.12
2022-10-10T13:03:33.964Z,73.70
2022-10-10T13:05:38.399Z,74.29
2022-10-10T13:07:41.908Z,74.12
2022-10-10T13:09:46.890Z,73.64
2022-10-10T13:11:59.408Z,73.49
2022-10-10T13:14:09.622Z,73.37
2022-10-10T13:16:15.865Z,74.75
2022-10-10T13:18:34.156Z,73.81
2022-10-10T13:20:38.913Z,74.77
2022-10-10T13:22:46.411Z,74.82
2022-10-10T13:24:51.007Z,74.63
2022-10-10T13:26:54.612Z,75.21
2022-10-10T13:29:01.955Z,74.04
2022-10-10T13:31:05.410Z,73.93
2022-10-10T13:33:14.138Z,74.16
2022-10-10T13:35:18.912Z,73.67
2022-10-10T13:37:22.134Z,71.88
2022-10-10T13:39:25.645Z,72.58
2022-10-10T13:41:29.178Z,73.09
2022-10-10T13:43:33.695Z,73.33
2022-10-10T13:45:40.157Z,71.62
2022-10-10T13:47:51.621Z,72.20
2022-10-10T13:49:56.152Z,72.52
2022-10-10T13:52:04.551Z,71.15
2022-10-10T13:54:44.900Z,71.68
2022-10-10T13:56:47.974Z,72.17
2022-10-10T13:58:52.825Z,71.43
2022-10-10T14:00:58.697Z,70.80
2022-10-10T14:03:01.795Z,71.73
2022-10-10T14:05:06.703Z,72.34
2022-10-10T14:07:14.365Z,73.23
2022-10-10T14:09:23.349Z,72.70
2022-10-10T14:11:28.660Z,72.47
2022-10-10T14:13:33.715Z,72.16
2022-10-10T14:15:44.453Z,72.59
2022-10-10T14:17:48.807Z,72.50
2022-10-10T14:19:52.687Z,72.62
2022-10-10T14:21:55.830Z,72.76
2022-10-10T14:23:58.941Z,72.21
2022-10-10T14:26:01.995Z,72.81
2022-10-10T14:28:05.148Z,72.34
2022-10-10T14:30:09.186Z,72.49
2022-10-10T14:32:12.500Z,72.07
2022-10-10T14:34:16.953Z,72.75
2022-10-10T14:36:20.038Z,72.06
2022-10-10T14:38:23.494Z,71.89
2022-10-10T14:40:28.122Z,71.69
2022-10-10T14:42:31.397Z,72.59
2022-10-10T14:44:34.615Z,72.38
2022-10-10T14:46:37.755Z,72.68
2022-10-10T14:48:40.882Z,72.93
2022-10-10T14:50:46.996Z,73.57
2022-10-10T14:52:50.013Z,73.33
2022-10-10T14:54:53.107Z,72.95
2022-10-10T14:57:06.611Z,73.57
2022-10-10T14:59:17.985Z,73.63
2022-10-10T15:01:40.916Z,74.01
2022-10-10T15:03:43.922Z,75.25
2022-10-10T15:05:48.898Z,75.27
2022-10-10T15:07:53.735Z,75.74
2022-10-10T15:10:31.662Z,76.94
2022-10-10T15:12:20.106Z,76.37
2022-10-10T15:14:24.270Z,75.41
2022-10-10T15:16:27.659Z,74.82
2022-10-10T15:18:53.302Z,75.41
2022-10-10T15:20:55.262Z,75.11
2022-10-10T15:22:59.218Z,74.75
2022-10-10T15:25:02.271Z,74.96
2022-10-10T15:27:05.478Z,74.91
2022-10-10T15:29:08.491Z,74.71
2022-10-10T15:31:11.491Z,75.06
2022-10-10T15:33:14.703Z,76.57
2022-10-10T15:35:19.872Z,76.40
2022-10-10T15:37:25.379Z,75.81
2022-10-10T15:39:28.857Z,76.64
2022-10-10T15:41:32.267Z,76.82
2022-10-10T15:43:44.491Z,76.48
2022-10-10T15:45:56.223Z,77.08
2022-10-10T15:47:59.830Z,77.13
2022-10-10T15:50:03.075Z,78.21
2022-10-10T15:52:06.368Z,78.63
2022-10-10T15:54:11.124Z,79.08
2022-10-10T15:56:17.786Z,80.00
2022-10-10T15:58:20.800Z,79.51
2022-10-10T16:00:23.951Z,80.03
2022-10-10T16:02:27.103Z,79.35
2022-10-10T16:04:30.566Z,79.95
2022-10-10T16:06:33.608Z,80.18
2022-10-10T16:08:37.042Z,80.52
2022-10-10T16:10:42.804Z,80.66
2022-10-10T16:12:45.772Z,81.47
2022-10-10T16:14:49.003Z,81.34
2022-10-10T16:16:52.000Z,81.33
2022-10-10T16:18:55.273Z,81.81
2022-10-10T16:20:58.474Z,83.28
2022-10-10T16:23:01.552Z,82.30
2022-10-10T16:27:30.060Z,83.87
2022-10-10T16:29:33.100Z,84.54
2022-10-10T16:31:38.999Z,85.40
2022-10-10T16:33:42.947Z,86.81
2022-10-10T16:35:46.010Z,87.28
2022-10-10T16:37:49.124Z,86.71
2022-10-10T16:39:52.198Z,88.15
2022-10-10T16:41:55.228Z,88.20
2022-10-10T16:43:59.753Z,86.77
2022-10-10T16:46:03.644Z,88.32
2022-10-10T16:48:06.882Z,88.65
2022-10-10T16:50:10.782Z,88.64
2022-10-10T16:52:13.930Z,88.28
2022-10-10T16:54:17.110Z,87.34
2022-10-10T16:56:21.849Z,87.86
2022-10-10T16:58:24.796Z,88.10
2022-10-10T17:00:29.199Z,88.73
2022-10-10T17:02:32.367Z,86.93
2022-10-10T17:04:35.715Z,88.50
2022-10-10T17:06:38.823Z,87.89
2022-10-10T17:08:43.463Z,89.03
2022-10-10T17:10:46.532Z,88.15
2022-10-10T17:12:49.687Z,87.99
2022-10-10T17:14:52.727Z,87.51
2022-10-10T17:17:11.591Z,87.36
2022-10-10T17:19:15.806Z,87.13
2022-10-10T17:21:20.037Z,87.28
2022-10-10T17:23:23.050Z,87.66
2022-10-10T17:25:26.519Z,88.46
2022-10-10T17:27:29.496Z,89.14
2022-10-10T17:29:32.528Z,89.63
2022-10-10T17:31:37.820Z,89.99
2022-10-10T17:33:42.813Z,90.33
2022-10-10T17:35:48.382Z,91.02
2022-10-10T17:37:51.482Z,91.33
2022-10-10T17:39:55.543Z,91.95
2022-10-10T17:41:58.645Z,92.37
2022-10-10T17:44:01.699Z,91.99
2022-10-10T17:46:32.589Z,92.76
2022-10-10T17:48:30.615Z,92.18
2022-10-10T17:50:35.922Z,92.92
2022-10-10T17:52:40.495Z,92.72
2022-10-10T17:54:43.856Z,92.53
2022-10-10T17:56:47.044Z,92.96
2022-10-10T17:58:50.672Z,92.60
2022-10-10T18:00:53.913Z,93.21
2022-10-10T18:02:56.972Z,93.14
2022-10-10T18:05:00.106Z,93.48
2022-10-10T18:07:04.535Z,93.21
2022-10-10T18:09:07.826Z,93.17
2022-10-10T18:11:13.758Z,93.61
2022-10-10T18:13:17.051Z,93.75
2022-10-10T18:15:20.075Z,93.40
2022-10-10T18:17:23.233Z,93.89
2022-10-10T18:19:26.248Z,93.76
2022-10-10T18:21:29.339Z,94.23
2022-10-10T18:23:34.086Z,94.29
2022-10-10T18:25:37.144Z,94.05
2022-10-10T18:27:40.225Z,94.40
2022-10-10T18:29:43.289Z,94.91
2022-10-10T18:31:46.419Z,94.49
2022-10-10T18:33:49.686Z,94.85
2022-10-10T18:35:52.725Z,94.69
2022-10-10T18:37:55.747Z,94.78
2022-10-10T18:40:00.249Z,95.36
2022-10-10T18:42:03.307Z,95.24
2022-10-10T18:44:08.235Z,94.98
2022-10-10T18:46:12.835Z,94.72
2022-10-10T18:48:15.900Z,94.75
2022-10-10T18:50:19.468Z,94.75
2022-10-10T18:52:24.233Z,94.80
2022-10-10T18:54:30.151Z,95.22
2022-10-10T18:56:35.098Z,95.13
2022-10-10T18:58:38.791Z,95.46
2022-10-10T19:00:41.850Z,95.64
2022-10-10T19:02:44.903Z,95.45
2022-10-10T19:04:48.390Z,95.59
2022-10-10T19:06:57.052Z,96.29
2022-10-10T19:09:01.665Z,96.59
2022-10-10T19:11:06.206Z,96.22
2022-10-10T19:13:10.867Z,95.96
2022-10-10T19:15:14.765Z,96.31
2022-10-10T19:17:17.817Z,96.36
2022-10-10T19:19:21.578Z,95.85
2022-10-10T19:21:25.311Z,94.38
2022-10-10T19:23:29.058Z,94.68
2022-10-10T19:25:32.964Z,94.95
2022-10-10T19:27:36.385Z,94.20
2022-10-10T19:29:41.249Z,94.49
2022-10-10T19:31:44.432Z,93.75
2022-10-10T19:33:52.527Z,93.55
2022-10-10T19:35:55.954Z,94.04
2022-10-10T19:37:59.303Z,94.54
2022-10-10T19:40:02.766Z,94.61
2022-10-10T19:42:06.126Z,94.93
2022-10-10T19:44:09.350Z,95.20
2022-10-10T19:46:15.821Z,95.53
2022-10-10T19:48:20.734Z,94.84
2022-10-10T19:50:24.018Z,94.36
2022-10-10T19:52:28.139Z,95.42
2022-10-10T19:54:32.241Z,95.14
2022-10-10T19:56:36.681Z,95.59
2022-10-10T19:58:39.847Z,95.32
2022-10-10T20:00:42.839Z,96.21
2022-10-10T20:02:49.244Z,96.12
2022-10-10T20:04:52.786Z,96.15
2022-10-10T20:06:56.317Z,95.78
2022-10-10T20:08:59.587Z,97.04
2022-10-10T20:11:03.215Z,96.84
2022-10-10T20:13:06.395Z,97.54
2022-10-10T20:15:10.543Z,97.26
2022-10-10T20:17:13.887Z,97.61
2022-10-10T20:19:18.592Z,97.23
2022-10-10T20:21:25.472Z,97.28
2022-10-10T20:23:28.805Z,97.45
2022-10-10T20:25:32.090Z,96.56
2022-10-10T20:27:36.211Z,97.11
2022-10-10T20:29:39.484Z,95.81
2022-10-10T20:31:43.771Z,96.72
2022-10-10T20:33:47.202Z,98.45
2022-10-10T20:35:55.955Z,98.66
2022-10-10T20:37:59.467Z,99.37
2022-10-10T20:40:02.543Z,99.53
2022-10-10T20:42:05.743Z,100.00
2022-10-10T20:44:11.542Z,100.00
2022-10-10T20:46:16.347Z,100.00
2022-10-10T20:48:21.255Z,100.00
2022-10-10T20:50:24.801Z,100.00
2022-10-10T20:52:29.550Z,100.00
2022-10-10T20:54:33.265Z,100.00
2022-10-10T20:56:37.261Z,100.00
2022-10-10T20:58:41.122Z,100.00
2022-10-10T21:00:45.220Z,100.00
2022-10-10T21:02:49.421Z,100.00
2022-10-10T21:04:53.506Z,100.00
2022-10-10T21:06:57.400Z,100.00
2022-10-10T21:09:03.741Z,100.00
2022-10-10T21:11:09.275Z,100.00
2022-10-10T21:13:12.457Z,100.00
2022-10-10T21:15:15.891Z,100.00
2022-10-10T21:17:19.131Z,100.00
2022-10-10T21:19:22.688Z,100.00
2022-10-10T21:21:26.996Z,99.38
2022-10-10T21:23:34.687Z,100.00
2022-10-10T21:25:42.307Z,100.00
2022-10-10T21:27:49.896Z,100.00
2022-10-10T21:29:52.898Z,100.00
2022-10-10T21:31:58.524Z,100.00
2022-10-10T21:34:02.868Z,100.00
2022-10-10T21:36:06.479Z,100.00
2022-10-10T21:38:09.993Z,100.00
2022-10-10T21:40:13.916Z,100.00
2022-10-10T21:42:20.687Z,100.00
2022-10-10T21:44:23.891Z,100.00
2022-10-10T21:46:33.568Z,100.00
2022-10-10T21:48:39.348Z,100.00
2022-10-10T21:50:42.459Z,100.00
2022-10-10T21:52:45.478Z,100.00
2022-10-10T21:54:48.529Z,100.00
2022-10-10T21:56:51.887Z,100.00
2022-10-10T21:59:00.894Z,100.00
2022-10-10T22:01:08.576Z,100.00
2022-10-10T22:03:11.792Z,100.00
2022-10-10T22:05:15.961Z,100.00
2022-10-10T22:07:18.969Z,100.00
2022-10-10T22:09:22.051Z,100.00
2022-10-10T22:11:26.218Z,100.00
2022-10-10T22:13:29.567Z,100.00
2022-10-10T22:15:37.214Z,100.00
2022-10-10T22:17:40.590Z,100.00
2022-10-10T22:19:43.673Z,100.00
2022-10-10T22:21:46.817Z,100.00
2022-10-10T22:23:49.840Z,100.00
2022-10-10T22:25:53.106Z,100.00
2022-10-10T22:27:58.363Z,100.00
2022-10-10T22:30:02.708Z,100.00
2022-10-10T22:32:07.539Z,100.00
2022-10-10T22:34:10.584Z,100.00
2022-10-10T22:36:13.970Z,100.00
2022-10-10T22:38:17.069Z,100.00
2022-10-10T22:40:22.120Z,100.00
2022-10-10T22:42:25.167Z,100.00
2022-10-10T22:44:28.182Z,100.00
2022-10-10T22:46:33.533Z,100.00
2022-10-10T22:48:38.046Z,100.00
2022-10-10T22:50:41.036Z,100.00
2022-10-10T22:52:44.005Z,100.00
2022-10-10T22:54:46.974Z,100.00
2022-10-10T22:56:50.005Z,100.00
2022-10-10T22:58:53.282Z,100.00
2022-10-10T23:00:56.371Z,100.00
2022-10-10T23:03:00.071Z,100.00
2022-10-10T23:05:04.894Z,100.00
2022-10-10T23:07:07.883Z,100.00
2022-10-10T23:09:11.517Z,100.00
2022-10-10T23:11:14.478Z,100.00
2022-10-10T23:13:17.525Z,100.00
2022-10-10T23:15:20.596Z,100.00
2022-10-10T23:17:23.712Z,100.00
2022-10-10T23:19:26.856Z,100.00
2022-10-10T23:21:31.303Z,100.00
2022-10-10T23:23:34.371Z,100.00
2022-10-10T23:25:41.369Z,100.00
2022-10-10T23:27:44.356Z,100.00
2022-10-10T23:29:47.395Z,100.00
2022-10-10T23:31:50.652Z,100.00
2022-10-10T23:33:53.743Z,100.00
2022-10-10T23:35:59.743Z,100.00
2022-10-10T23:38:04.131Z,100.00
2022-10-10T23:40:08.307Z,100.00
2022-10-10T23:42:11.399Z,100.00
2022-10-10T23:44:14.400Z,100.00
2022-10-10T23:46:17.608Z,100.00
2022-10-10T23:48:20.917Z,100.00
2022-10-10T23:50:23.910Z,100.00
